Time;durP1;ratioP1;P1;durP2;ratioP2;P2;SDS_P1;SDS_P2;PMS_P1;PMS_P2;Temp;Humidity;BMP_temperature;BMP_pressure;BME280_temperature;BME280_humidity;BME280_pressure;Samples;Min_cycle;Max_cycle;Signal;HPM_P1;HPM_P2
2021/06/22 00:01:35;;;;;;;;;;;;;;;23.97;49.63;100363.13;5058131;28;923;-37
2021/06/22 00:04:01;;;;;;;;;;;;;;;23.03;48.03;100355.38;5058978;28;814;-35
2021/06/22 00:06:26;;;;;;;;;;;;;;;22.68;47.46;100353.66;5058500;28;867;-35
2021/06/22 00:08:51;;;;;;;;;;;;;;;22.93;50.27;100350.19;5058771;28;748;-37
2021/06/22 00:11:17;;;;;;;;;;;;;;;23.16;51.02;100349.53;5058467;28;1882;-37
2021/06/22 00:13:42;;;;;;;;;;;;;;;23.49;50.60;100344.22;5058905;28;1092;-37
2021/06/22 00:16:07;;;;;;;;;;;;;;;23.52;50.86;100335.84;5058237;28;752;-37
2021/06/22 00:18:33;;;;;;;;;;;;;;;23.98;49.35;100339.78;5058220;28;1043;-35
2021/06/22 00:20:58;;;;;;;;;;;;;;;23.99;49.76;100335.28;5058673;28;812;-36
2021/06/22 00:23:23;;;;;;;;;;;;;;;23.99;50.55;100333.41;5058170;28;729;-37
2021/06/22 00:25:48;;;;;;;;;;;;;;;23.27;47.40;100325.09;5058360;28;750;-38
2021/06/22 00:28:14;;;;;;;;;;;;;;;22.76;47.57;100328.69;5058179;28;820;-38
2021/06/22 00:30:39;;;;;;;;;;;;;;;23.07;49.87;100321.88;5057881;28;1922;-38
2021/06/22 00:33:04;;;;;;;;;;;;;;;23.16;51.10;100328.06;5057763;28;1003;-38
2021/06/22 00:35:30;;;;;;;;;;;;;;;23.66;49.84;100325.41;5058635;28;740;-38
2021/06/22 00:37:55;;;;;;;;;;;;;;;23.78;50.11;100318.69;5057768;28;923;-38
2021/06/22 00:40:20;;;;;;;;;;;;;;;23.94;49.89;100327.72;5058263;28;839;-38
2021/06/22 00:42:49;;;;;;;;;;;;;;;24.05;49.43;100330.03;5058110;28;767;-38
2021/06/22 00:45:15;;;;;;;;;;;;;;;23.92;50.78;100325.19;5058174;28;765;-39
2021/06/22 00:47:41;;;;;;;;;;;;;;;23.26;47.15;100326.06;5057794;28;959;-39
2021/06/22 00:50:09;;;;;;;;;;;;;;;22.95;48.71;100316.00;5057903;28;1993;-39
2021/06/22 00:52:35;;;;;;;;;;;;;;;23.09;49.12;100306.44;5057496;28;772;-39
2021/06/22 00:55:00;;;;;;;;;;;;;;;23.33;50.13;100307.47;5057898;28;732;-39
2021/06/22 00:57:25;;;;;;;;;;;;;;;23.69;49.24;100308.97;5057903;28;810;-40
2021/06/22 00:59:51;;;;;;;;;;;;;;;23.82;48.90;100306.56;5056414;28;756;-38
2021/06/22 01:02:16;;;;;;;;;;;;;;;23.90;49.89;100311.13;5057460;28;912;-39
2021/06/22 01:04:41;;;;;;;;;;;;;;;24.05;48.92;100305.03;5057545;28;837;-38
2021/06/22 01:07:07;;;;;;;;;;;;;;;24.02;47.79;100300.84;5057424;28;783;-39
2021/06/22 01:09:32;;;;;;;;;;;;;;;23.35;45.89;100298.25;5056716;28;1906;-39
2021/06/22 01:11:58;;;;;;;;;;;;;;;22.98;48.54;100294.19;5056052;28;1132;-39
2021/06/22 01:14:26;;;;;;;;;;;;;;;23.27;48.49;100294.72;5057332;28;791;-39
2021/06/22 01:16:52;;;;;;;;;;;;;;;23.46;49.20;100297.09;5057209;28;939;-39
2021/06/22 01:19:17;;;;;;;;;;;;;;;23.65;49.25;100291.53;5057217;28;1064;-39
2021/06/22 01:21:42;;;;;;;;;;;;;;;23.91;48.50;100293.13;5057109;28;743;-37
2021/06/22 01:24:14;;;;;;;;;;;;;;;23.83;49.31;100297.53;5057355;28;803;-39
2021/06/22 01:26:44;;;;;;;;;;;;;;;24.06;48.70;100295.94;5057397;28;922;-38
2021/06/22 01:29:09;;;;;;;;;;;;;;;23.23;46.79;100299.56;5057051;28;763;-38
2021/06/22 01:31:35;;;;;;;;;;;;;;;22.77;46.77;100290.16;5056487;28;1914;-38
2021/06/22 01:34:00;;;;;;;;;;;;;;;22.95;48.73;100292.69;5057085;28;893;-38
2021/06/22 01:36:30;;;;;;;;;;;;;;;23.24;49.18;100283.31;5056813;28;871;-38
2021/06/22 01:38:55;;;;;;;;;;;;;;;23.55;49.04;100281.81;5056637;28;827;-38
2021/06/22 01:41:20;;;;;;;;;;;;;;;23.62;49.79;100275.75;5057077;28;814;-38
2021/06/22 01:43:46;;;;;;;;;;;;;;;23.96;48.54;100272.81;5056945;28;806;-38
2021/06/22 01:46:14;;;;;;;;;;;;;;;23.88;49.32;100278.19;5056187;28;944;-37
2021/06/22 01:48:39;;;;;;;;;;;;;;;24.08;49.33;100281.34;5056953;28;995;-38
2021/06/22 01:51:05;;;;;;;;;;;;;;;23.46;46.40;100282.81;5056487;28;1910;-36
2021/06/22 01:53:30;;;;;;;;;;;;;;;22.97;45.97;100279.13;5056528;28;1002;-38
2021/06/22 01:55:55;;;;;;;;;;;;;;;23.07;48.62;100285.13;5056434;28;772;-39
2021/06/22 01:58:21;;;;;;;;;;;;;;;23.28;49.55;100289.19;5056452;28;829;-39
2021/06/22 02:00:47;;;;;;;;;;;;;;;23.63;48.68;100296.22;5056587;28;759;-38
2021/06/22 02:03:13;;;;;;;;;;;;;;;23.63;49.60;100298.91;5056241;28;955;-37
2021/06/22 02:05:41;;;;;;;;;;;;;;;23.99;48.20;100301.16;5055945;28;538;-39
2021/06/22 02:08:07;;;;;;;;;;;;;;;24.02;48.48;100306.22;5056569;28;800;-38
2021/06/22 02:10:32;;;;;;;;;;;;;;;23.90;49.63;100305.75;5056748;28;1880;-38
2021/06/22 02:12:57;;;;;;;;;;;;;;;23.31;46.10;100298.72;5056161;28;1163;-38
2021/06/22 02:15:25;;;;;;;;;;;;;;;22.76;47.06;100301.88;5056345;28;851;-38
2021/06/22 02:17:51;;;;;;;;;;;;;;;23.11;48.20;100302.59;5056228;28;1014;-38
2021/06/22 02:20:18;;;;;;;;;;;;;;;23.25;49.18;100311.00;5056006;28;1068;-37
2021/06/22 02:22:43;;;;;;;;;;;;;;;23.71;48.15;100306.94;5055964;28;853;-37
2021/06/22 02:25:09;;;;;;;;;;;;;;;23.87;48.26;100311.47;5055920;28;817;-37
2021/06/22 02:27:34;;;;;;;;;;;;;;;23.95;48.85;100310.59;5056130;28;753;-38
2021/06/22 02:29:59;;;;;;;;;;;;;;;24.07;48.17;100305.69;5056213;28;1961;-37
2021/06/22 02:32:25;;;;;;;;;;;;;;;23.90;49.49;100305.75;5056051;28;1007;-38
2021/06/22 02:34:50;;;;;;;;;;;;;;;23.14;46.06;100304.09;5055563;28;804;-37
2021/06/22 02:37:16;;;;;;;;;;;;;;;22.92;47.30;100306.41;5056350;28;783;-37
2021/06/22 02:39:41;;;;;;;;;;;;;;;23.15;48.23;100308.47;5056137;28;752;-38
2021/06/22 02:42:07;;;;;;;;;;;;;;;23.33;48.95;100300.25;5055987;28;756;-38
2021/06/22 02:44:35;;;;;;;;;;;;;;;23.72;48.24;100298.72;5054484;28;1471;-37
2021/06/22 02:47:00;;;;;;;;;;;;;;;23.84;48.10;100306.41;5055364;28;1002;-37
2021/06/22 02:49:26;;;;;;;;;;;;;;;23.88;49.06;100318.50;5055886;28;784;-38
2021/06/22 02:51:52;;;;;;;;;;;;;;;24.09;48.24;100317.06;5055770;28;1968;-38
2021/06/22 02:54:17;;;;;;;;;;;;;;;23.94;49.38;100307.06;5054347;28;823;-38
2021/06/22 02:56:42;;;;;;;;;;;;;;;23.21;45.91;100293.53;5055608;28;767;-37
2021/06/22 02:59:07;;;;;;;;;;;;;;;22.77;48.96;100283.94;5056045;28;792;-38
2021/06/22 03:01:33;;;;;;;;;;;;;;;23.17;49.52;100301.06;5055283;28;974;-37
2021/06/22 03:03:58;;;;;;;;;;;;;;;23.33;52.32;100299.41;5056000;28;757;-38
2021/06/22 03:06:23;;;;;;;;;;;;;;;23.38;52.96;100305.09;5055595;28;767;-36
2021/06/22 03:08:52;;;;;;;;;;;;;;;23.49;51.75;100298.56;5055850;28;795;-38
2021/06/22 03:11:19;;;;;;;;;;;;;;;23.42;53.61;100298.41;5055799;28;1955;-38
2021/06/22 03:13:45;;;;;;;;;;;;;;;23.48;54.88;100305.81;5055346;28;895;-38
2021/06/22 03:16:10;;;;;;;;;;;;;;;23.34;51.10;100303.75;5055202;28;944;-35
2021/06/22 03:18:35;;;;;;;;;;;;;;;22.94;49.97;100309.78;5055533;28;1299;-40
2021/06/22 03:21:01;;;;;;;;;;;;;;;22.71;49.04;100307.72;5055539;28;755;-40
2021/06/22 03:23:26;;;;;;;;;;;;;;;23.15;50.93;100311.16;5056774;28;835;-36
2021/06/22 03:25:51;;;;;;;;;;;;;;;23.28;53.05;100313.34;5059473;28;819;-35
2021/06/22 03:28:16;;;;;;;;;;;;;;;23.40;54.06;100316.56;5059254;28;783;-39
2021/06/22 03:30:43;;;;;;;;;;;;;;;23.38;53.92;100323.06;5059554;28;1967;-37
2021/06/22 03:33:08;;;;;;;;;;;;;;;23.47;54.05;100322.09;5058795;28;1234;-36
2021/06/22 03:35:34;;;;;;;;;;;;;;;23.39;51.51;100325.56;5058608;28;859;-35
2021/06/22 03:37:59;;;;;;;;;;;;;;;23.20;52.41;100324.91;5058595;28;780;-36
2021/06/22 03:40:24;;;;;;;;;;;;;;;23.18;53.16;100331.44;5059768;28;811;-38
2021/06/22 03:42:50;;;;;;;;;;;;;;;22.95;51.91;100332.09;5058860;28;756;-38
2021/06/22 03:45:15;;;;;;;;;;;;;;;22.74;53.53;100334.22;5058922;28;839;-39
2021/06/22 03:47:41;;;;;;;;;;;;;;;22.76;59.24;100339.41;5059268;28;1007;-36
2021/06/22 03:50:06;;;;;;;;;;;;;;;22.86;59.06;100339.25;5058705;28;1957;-40
2021/06/22 03:52:31;;;;;;;;;;;;;;;23.28;55.68;100332.13;5059075;28;764;-39
2021/06/22 03:54:57;;;;;;;;;;;;;;;23.41;56.37;100338.84;5059217;28;842;-41
2021/06/22 03:57:22;;;;;;;;;;;;;;;23.56;56.66;100336.31;5058526;28;824;-37
2021/06/22 03:59:51;;;;;;;;;;;;;;;22.97;51.98;100332.75;5059610;28;750;-40
2021/06/22 04:02:16;;;;;;;;;;;;;;;22.65;50.82;100342.41;5058179;28;935;-39
2021/06/22 04:04:42;;;;;;;;;;;;;;;22.69;52.35;100341.09;5058206;28;737;-39
2021/06/22 04:07:07;;;;;;;;;;;;;;;23.27;53.60;100345.72;5058924;28;831;-42
2021/06/22 04:09:32;;;;;;;;;;;;;;;23.64;53.84;100344.38;5058828;28;732;-42
2021/06/22 04:11:57;;;;;;;;;;;;;;;23.66;51.30;100341.50;5057399;28;1898;-43
2021/06/22 04:14:23;;;;;;;;;;;;;;;23.77;49.32;100343.03;5058564;28;776;-42
2021/06/22 04:16:48;;;;;;;;;;;;;;;23.78;48.24;100339.31;5057683;28;959;-43
2021/06/22 04:19:14;;;;;;;;;;;;;;;23.84;48.53;100330.56;5057759;28;1080;-44
2021/06/22 04:21:39;;;;;;;;;;;;;;;23.97;50.12;100340.81;5058996;28;856;-43
2021/06/22 04:24:05;;;;;;;;;;;;;;;23.90;51.58;100348.72;5059224;28;735;-43
2021/06/22 04:26:33;;;;;;;;;;;;;;;23.95;48.78;100354.41;5058594;28;748;-43
2021/06/22 04:28:58;;;;;;;;;;;;;;;24.03;48.83;100356.25;5058897;28;717;-39
2021/06/22 04:31:24;;;;;;;;;;;;;;;24.09;46.05;100357.38;5058252;28;1906;-42
2021/06/22 04:33:49;;;;;;;;;;;;;;;24.18;46.64;100351.03;5058383;28;886;-38
2021/06/22 04:36:17;;;;;;;;;;;;;;;24.21;47.76;100361.44;5058573;28;779;-43
2021/06/22 04:38:42;;;;;;;;;;;;;;;24.23;48.07;100361.25;5058557;28;811;-48
2021/06/22 04:41:08;;;;;;;;;;;;;;;24.26;47.33;100360.91;5057853;28;736;-39
2021/06/22 04:43:33;;;;;;;;;;;;;;;24.26;46.17;100368.13;5058689;28;839;-43
2021/06/22 04:45:58;;;;;;;;;;;;;;;24.29;46.16;100367.78;5058179;28;759;-44
2021/06/22 04:48:24;;;;;;;;;;;;;;;24.39;45.70;100363.03;5057830;28;1034;-42
2021/06/22 04:50:49;;;;;;;;;;;;;;;24.40;47.03;100359.34;5058168;28;1913;-41
2021/06/22 04:53:15;;;;;;;;;;;;;;;24.49;45.89;100365.50;5058469;28;727;-39
2021/06/22 04:55:40;;;;;;;;;;;;;;;24.51;44.40;100376.09;5057889;28;906;-39
2021/06/22 04:58:09;;;;;;;;;;;;;;;24.49;43.97;100378.97;5058413;28;744;-40
2021/06/22 05:00:34;;;;;;;;;;;;;;;24.62;44.26;100389.19;5057502;28;792;-40
2021/06/22 05:03:02;;;;;;;;;;;;;;;24.70;44.75;100393.69;5057674;28;995;-41
2021/06/22 05:05:28;;;;;;;;;;;;;;;24.38;46.72;100400.84;5056573;28;1129;-40
2021/06/22 05:07:53;;;;;;;;;;;;;;;24.49;44.58;100407.72;5058271;28;756;-41
2021/06/22 05:10:18;;;;;;;;;;;;;;;24.56;43.25;100411.38;5057739;28;1910;-40
2021/06/22 05:12:45;;;;;;;;;;;;;;;24.62;42.93;100410.69;5058046;28;1128;-40
2021/06/22 05:15:11;;;;;;;;;;;;;;;24.58;42.33;100414.72;5057713;28;804;-40
2021/06/22 05:17:37;;;;;;;;;;;;;;;24.58;42.46;100414.72;5057269;28;947;-40
2021/06/22 05:20:03;;;;;;;;;;;;;;;24.67;42.82;100418.22;5057649;28;1294;-40
2021/06/22 05:22:31;;;;;;;;;;;;;;;24.63;42.36;100416.88;5057630;28;1473;-40
2021/06/22 05:24:56;;;;;;;;;;;;;;;24.66;41.79;100424.59;5057489;28;836;-40
2021/06/22 05:27:22;;;;;;;;;;;;;;;24.71;41.41;100424.94;5057177;28;781;-40
2021/06/22 05:29:47;;;;;;;;;;;;;;;24.78;42.17;100420.53;5057916;28;1968;-41
2021/06/22 05:32:12;;;;;;;;;;;;;;;24.78;42.55;100425.91;5057278;28;1022;-41
2021/06/22 05:34:37;;;;;;;;;;;;;;;24.73;42.36;100425.59;5056838;28;875;-41
2021/06/22 05:37:03;;;;;;;;;;;;;;;24.81;42.14;100427.41;5057270;28;738;-40
2021/06/22 05:39:28;;;;;;;;;;;;;;;24.76;43.53;100425.25;5057294;28;823;-39
2021/06/22 05:41:53;;;;;;;;;;;;;;;25.04;42.70;100430.19;5056871;28;831;-38
2021/06/22 05:44:19;;;;;;;;;;;;;;;25.23;42.39;100428.06;5057510;28;771;-39
2021/06/22 05:46:44;;;;;;;;;;;;;;;25.42;41.98;100434.81;5056517;28;1034;-39
2021/06/22 05:49:12;;;;;;;;;;;;;;;25.44;42.34;100438.19;5057355;28;714;-39
2021/06/22 05:51:38;;;;;;;;;;;;;;;25.58;42.16;100429.50;5057564;28;1971;-39
2021/06/22 05:54:03;;;;;;;;;;;;;;;25.60;42.33;100435.53;5057733;28;883;-39
2021/06/22 05:56:31;;;;;;;;;;;;;;;25.60;42.55;100443.63;5056645;28;788;-39
2021/06/22 05:58:58;;;;;;;;;;;;;;;25.65;42.47;100439.41;5056980;28;837;-38
2021/06/22 06:01:23;;;;;;;;;;;;;;;25.79;42.18;100445.03;5056842;28;939;-37
2021/06/22 06:03:48;;;;;;;;;;;;;;;25.77;42.49;100436.28;5056699;28;839;-39
2021/06/22 06:06:14;;;;;;;;;;;;;;;25.84;42.42;100439.91;5057133;28;748;-39
2021/06/22 06:08:39;;;;;;;;;;;;;;;25.90;42.35;100439.19;5056982;28;776;-39
2021/06/22 06:11:04;;;;;;;;;;;;;;;25.93;42.60;100438.00;5056474;28;1969;-39
2021/06/22 06:13:30;;;;;;;;;;;;;;;25.95;42.51;100432.41;5057023;28;1163;-39
2021/06/22 06:15:55;;;;;;;;;;;;;;;26.00;42.53;100428.16;5056979;28;807;-39
2021/06/22 06:18:21;;;;;;;;;;;;;;;26.06;42.81;100431.16;5055743;28;1031;-40
2021/06/22 06:20:46;;;;;;;;;;;;;;;26.11;42.62;100424.16;5056914;28;887;-39
2021/06/22 06:23:11;;;;;;;;;;;;;;;26.20;42.56;100429.47;5057112;28;744;-39
2021/06/22 06:25:37;;;;;;;;;;;;;;;26.17;42.70;100423.41;5056362;28;744;-39
2021/06/22 06:28:13;;;;;;;;;;;;;;;26.18;42.89;100416.19;5056805;28;791;-39
2021/06/22 06:30:39;;;;;;;;;;;;;;;26.26;42.68;100429.56;5056741;28;1909;-40
2021/06/22 06:33:04;;;;;;;;;;;;;;;26.26;42.67;100437.66;5056169;28;962;-40
2021/06/22 06:35:29;;;;;;;;;;;;;;;26.26;42.80;100426.88;5056751;28;764;-40
2021/06/22 06:37:55;;;;;;;;;;;;;;;26.24;42.93;100434.31;5056347;28;895;-39
2021/06/22 06:40:20;;;;;;;;;;;;;;;26.33;43.24;100434.25;5056109;28;819;-40
2021/06/22 06:42:45;;;;;;;;;;;;;;;26.34;42.98;100439.44;5056797;28;807;-40
2021/06/22 06:45:11;;;;;;;;;;;;;;;26.35;43.13;100422.28;5056670;28;785;-39
2021/06/22 06:47:36;;;;;;;;;;;;;;;26.42;43.31;100427.75;5055702;28;971;-39
2021/06/22 06:50:02;;;;;;;;;;;;;;;26.43;43.12;100426.72;5056550;28;1969;-39
2021/06/22 06:52:28;;;;;;;;;;;;;;;26.46;43.50;100420.13;5056409;28;806;-39
2021/06/22 06:54:54;;;;;;;;;;;;;;;26.54;42.86;100422.75;5056264;28;802;-38
2021/06/22 06:57:19;;;;;;;;;;;;;;;26.50;42.87;100421.44;5056195;28;878;-39
2021/06/22 06:59:44;;;;;;;;;;;;;;;26.53;43.21;100423.75;5060181;28;779;-39
2021/06/22 07:02:09;;;;;;;;;;;;;;;26.62;42.70;100424.50;5059907;28;923;-39
2021/06/22 07:04:35;;;;;;;;;;;;;;;26.65;42.85;100421.41;5060356;28;811;-38
2021/06/22 07:07:00;;;;;;;;;;;;;;;26.64;43.05;100423.25;5060153;28;843;-39
2021/06/22 07:09:26;;;;;;;;;;;;;;;26.73;42.81;100417.75;5060357;28;787;-38
2021/06/22 07:11:51;;;;;;;;;;;;;;;26.78;42.53;100423.44;5060292;28;1905;-38
2021/06/22 07:14:16;;;;;;;;;;;;;;;26.76;42.62;100422.78;5060359;28;807;-40
2021/06/22 07:16:42;;;;;;;;;;;;;;;26.82;42.52;100427.44;5059758;28;955;-40
2021/06/22 07:19:07;;;;;;;;;;;;;;;26.86;42.72;100428.72;5059633;28;1299;-40
2021/06/22 07:21:33;;;;;;;;;;;;;;;26.89;43.13;100433.75;5060159;28;793;-39
2021/06/22 07:23:58;;;;;;;;;;;;;;;26.90;43.34;100439.97;5058838;28;1160;-39
2021/06/22 07:26:23;;;;;;;;;;;;;;;26.91;43.03;100444.34;5059964;28;915;-39
2021/06/22 07:28:49;;;;;;;;;;;;;;;26.65;42.58;100438.44;5059825;28;778;-40
2021/06/22 07:31:14;;;;;;;;;;;;;;;26.80;42.45;100451.06;5059458;28;1981;-38
2021/06/22 07:33:40;;;;;;;;;;;;;;;26.82;42.22;100445.50;5059820;28;947;-41
2021/06/22 07:36:08;;;;;;;;;;;;;;;26.90;42.18;100442.69;5059727;28;726;-42
2021/06/22 07:38:34;;;;;;;;;;;;;;;26.93;41.98;100436.91;5059429;28;728;-42
2021/06/22 07:40:59;;;;;;;;;;;;;;;26.87;42.11;100443.91;5059509;28;871;-40
2021/06/22 07:43:24;;;;;;;;;;;;;;;26.92;42.07;100442.50;5059769;28;756;-38
2021/06/22 07:45:50;;;;;;;;;;;;;;;26.97;41.63;100449.00;5059057;28;983;-38
2021/06/22 07:48:15;;;;;;;;;;;;;;;26.97;42.02;100449.00;5058883;28;955;-39
2021/06/22 07:50:40;;;;;;;;;;;;;;;27.01;41.78;100449.44;5059584;28;1911;-39
2021/06/22 07:53:05;;;;;;;;;;;;;;;27.04;41.83;100446.41;5059634;28;772;-40
2021/06/22 07:55:31;;;;;;;;;;;;;;;27.07;41.97;100453.28;5058991;28;811;-39
2021/06/22 07:57:56;;;;;;;;;;;;;;;27.01;41.67;100450.31;5059551;28;776;-36
2021/06/22 08:03:06;;;;;;;;;;;;;;;27.04;42.06;100446.41;5059100;28;940;-39
2021/06/22 08:05:32;;;;;;;;;;;;;;;27.08;42.00;100452.25;5059234;28;1518;-40
2021/06/22 08:07:57;;;;;;;;;;;;;;;27.12;41.78;100459.81;5058823;28;541;-37
2021/06/22 08:10:22;;;;;;;;;;;;;;;27.10;41.75;100452.91;5058327;28;1977;-38
2021/06/22 08:12:48;;;;;;;;;;;;;;;27.12;41.72;100456.25;5059195;28;1206;-38
2021/06/22 08:15:13;;;;;;;;;;;;;;;27.13;41.73;100452.53;5058679;28;495;-37
2021/06/22 08:17:38;;;;;;;;;;;;;;;26.98;42.28;100449.81;5058346;28;959;-36
2021/06/22 08:20:04;;;;;;;;;;;;;;;26.83;42.23;100450.69;5058577;28;1316;-39
2021/06/22 08:22:30;;;;;;;;;;;;;;;26.99;41.82;100452.34;5059269;28;751;-39
2021/06/22 08:24:55;;;;;;;;;;;;;;;27.05;41.93;100449.94;5058626;28;1416;-39
2021/06/22 08:27:21;;;;;;;;;;;;;;;27.10;41.78;100458.31;5059110;28;775;-40
2021/06/22 08:29:46;;;;;;;;;;;;;;;27.15;41.60;100447.78;5058262;28;1465;-40
2021/06/22 08:32:11;;;;;;;;;;;;;;;27.14;41.57;100449.63;5058295;28;1922;-39
2021/06/22 08:34:36;;;;;;;;;;;;;;;27.18;41.64;100454.66;5058758;28;890;-39
2021/06/22 08:37:02;;;;;;;;;;;;;;;27.19;41.69;100454.47;5058553;28;783;-39
2021/06/22 08:39:27;;;;;;;;;;;;;;;27.26;41.27;100447.28;5058366;28;847;-38
2021/06/22 08:41:52;;;;;;;;;;;;;;;27.24;41.35;100452.03;5058362;28;811;-37
2021/06/22 08:44:18;;;;;;;;;;;;;;;27.24;41.46;100451.22;5057196;28;787;-38
2021/06/22 08:46:44;;;;;;;;;;;;;;;27.23;41.47;100453.06;5058161;28;1027;-39
2021/06/22 08:49:09;;;;;;;;;;;;;;;27.29;41.09;100446.06;5058117;28;887;-40
2021/06/22 08:51:36;;;;;;;;;;;;;;;27.25;41.26;100448.31;5058436;28;1906;-40
2021/06/22 08:54:02;;;;;;;;;;;;;;;27.17;41.46;100448.44;5056687;28;1069;-41
2021/06/22 08:56:27;;;;;;;;;;;;;;;26.97;42.03;100445.47;5056899;28;1465;-40
2021/06/22 08:58:52;;;;;;;;;;;;;;;26.95;42.08;100452.91;5058227;28;741;-40
2021/06/22 09:01:18;;;;;;;;;;;;;;;26.99;42.04;100446.13;5057528;28;987;-38
2021/06/22 09:03:43;;;;;;;;;;;;;;;26.93;42.27;100445.00;5057745;28;780;-39
2021/06/22 09:06:08;;;;;;;;;;;;;;;27.04;41.81;100442.88;5058272;28;793;-40
2021/06/22 09:08:34;;;;;;;;;;;;;;;27.05;41.71;100445.38;5057642;28;819;-41
2021/06/22 09:11:05;;;;;;;;;;;;;;;27.05;41.96;100436.44;5057834;28;1902;-41
2021/06/22 09:13:31;;;;;;;;;;;;;;;27.01;42.20;100449.44;5057655;28;1155;-41
2021/06/22 09:15:57;;;;;;;;;;;;;;;27.06;41.82;100444.34;5057926;28;807;-40
2021/06/22 09:18:23;;;;;;;;;;;;;;;27.04;41.83;100446.41;5056938;28;1291;-41
2021/06/22 09:20:49;;;;;;;;;;;;;;;27.06;41.50;100438.94;5056815;28;811;-39
2021/06/22 09:23:15;;;;;;;;;;;;;;;27.08;41.52;100438.75;5057729;28;792;-41
2021/06/22 09:25:41;;;;;;;;;;;;;;;27.04;41.65;100441.03;5057491;28;804;-41
2021/06/22 09:28:06;;;;;;;;;;;;;;;27.11;41.86;100449.19;5057794;28;843;-40
2021/06/22 09:30:34;;;;;;;;;;;;;;;27.04;41.81;100446.41;5057591;28;1918;-40
2021/06/22 09:33:10;;;;;;;;;;;;;;;27.08;41.67;100449.56;5057045;28;990;-41
2021/06/22 09:35:35;;;;;;;;;;;;;;;27.07;41.44;100456.00;5057566;28;871;-41
2021/06/22 09:38:01;;;;;;;;;;;;;;;27.05;41.76;100442.69;5057365;28;765;-40
2021/06/22 09:40:27;;;;;;;;;;;;;;;27.03;41.62;100444.72;5055957;28;1264;-40
2021/06/22 09:42:53;;;;;;;;;;;;;;;27.06;41.62;100440.84;5057287;28;817;-40
2021/06/22 09:45:19;;;;;;;;;;;;;;;27.04;41.84;100435.63;5057023;28;800;-41
2021/06/22 09:47:45;;;;;;;;;;;;;;;27.03;41.75;100439.31;5055330;28;1131;-41
2021/06/22 09:50:29;;;;;;;;;;;;;;;27.05;41.88;100441.84;5056819;28;1910;-39
2021/06/22 09:52:54;;;;;;;;;;;;;;;27.00;42.01;100436.97;5057006;28;852;-41
2021/06/22 09:55:31;;;;;;;;;;;;;;;27.02;41.70;100435.81;5057121;28;748;-40
2021/06/22 09:57:56;;;;;;;;;;;;;;;27.01;42.17;100428.72;5056054;28;1210;-39
2021/06/22 10:00:21;;;;;;;;;;;;;;;27.07;42.18;100431.69;5056536;28;875;-41
2021/06/22 10:02:47;;;;;;;;;;;;;;;27.06;41.89;100428.16;5054890;28;1552;-40
2021/06/22 10:05:12;;;;;;;;;;;;;;;26.94;42.36;100422.41;5056936;28;756;-41
2021/06/22 10:07:38;;;;;;;;;;;;;;;26.97;42.46;100421.16;5055027;28;1435;-40
2021/06/22 10:10:03;;;;;;;;;;;;;;;26.93;42.25;100415.31;5057047;28;1971;-40
2021/06/22 10:12:29;;;;;;;;;;;;;;;26.99;42.22;100425.34;5056899;28;1116;-40
2021/06/22 10:15:01;;;;;;;;;;;;;;;26.97;42.08;100422.03;5056416;28;834;-40
2021/06/22 10:17:27;;;;;;;;;;;;;;;26.99;42.39;100424.53;5056525;28;975;-39
2021/06/22 10:19:53;;;;;;;;;;;;;;;26.92;42.53;100421.75;5056693;28;1084;-39
2021/06/22 10:22:21;;;;;;;;;;;;;;;26.96;42.34;100425.72;5056236;28;715;-37
2021/06/22 10:24:47;;;;;;;;;;;;;;;26.94;42.18;100422.41;5056759;28;843;-40
2021/06/22 10:27:13;;;;;;;;;;;;;;;26.93;42.53;100422.56;5056915;28;795;-37
2021/06/22 10:29:38;;;;;;;;;;;;;;;26.94;42.47;100426.94;5056127;28;775;-39
2021/06/22 10:32:03;;;;;;;;;;;;;;;26.91;42.25;100422.75;5055849;28;1910;-39
2021/06/22 10:34:30;;;;;;;;;;;;;;;26.94;42.39;100413.47;5056261;28;811;-39
2021/06/22 10:36:55;;;;;;;;;;;;;;;26.95;42.14;100420.53;5056182;28;807;-40
2021/06/22 10:39:47;;;;;;;;;;;;;;;26.93;42.58;100412.63;5056959;28;771;-39
2021/06/22 10:42:12;;;;;;;;;;;;;;;26.91;42.35;100411.97;5053421;28;1914;-41
2021/06/22 10:44:37;;;;;;;;;;;;;;;26.76;42.91;100410.13;5056226;28;780;-40
2021/06/22 10:47:15;;;;;;;;;;;;;;;26.88;42.48;100401.53;5056248;28;966;-40
2021/06/22 10:49:56;;;;;;;;;;;;;;;26.88;42.48;100397.00;5056255;28;740;-40
2021/06/22 10:52:40;;;;;;;;;;;;;;;26.95;42.05;100397.06;5056383;28;808;-40
2021/06/22 10:55:05;;;;;;;;;;;;;;;26.97;42.08;100405.81;5056479;28;734;-40
2021/06/22 10:57:49;;;;;;;;;;;;;;;27.02;41.87;100405.28;5056226;28;787;-41
2021/06/22 11:00:14;;;;;;;;;;;;;;;26.98;42.05;100399.38;5056276;28;787;-40
2021/06/22 11:03:09;;;;;;;;;;;;;;;26.96;42.08;100397.91;5054255;28;983;-41
2021/06/22 11:05:35;;;;;;;;;;;;;;;26.92;42.24;100397.47;5046651;28;1588;-39
2021/06/22 11:08:13;;;;;;;;;;;;;;;26.98;42.21;100391.28;5056471;28;743;-41
2021/06/22 11:10:38;;;;;;;;;;;;;;;26.87;39.16;100389.94;5056102;28;1926;-40
2021/06/22 11:13:04;;;;;;;;;;;;;;;26.67;39.23;100384.28;5055943;28;957;-39
2021/06/22 11:15:45;;;;;;;;;;;;;;;26.57;39.93;100390.00;5056881;28;776;-40
2021/06/22 11:18:11;;;;;;;;;;;;;;;26.52;40.26;100374.38;5055727;28;1002;-40
2021/06/22 11:20:36;;;;;;;;;;;;;;;26.69;40.46;100381.41;5055593;28;1435;-40
2021/06/22 11:23:05;;;;;;;;;;;;;;;26.83;40.70;100382.38;5056133;28;724;-40
2021/06/22 11:25:50;;;;;;;;;;;;;;;26.84;41.07;100379.50;5056277;28;768;-40
2021/06/22 11:28:16;;;;;;;;;;;;;;;26.82;41.32;100375.31;5055917;28;740;-40
2021/06/22 11:30:50;;;;;;;;;;;;;;;26.88;40.99;100374.56;5055837;28;1927;-40
2021/06/22 11:33:27;;;;;;;;;;;;;;;26.88;41.12;100378.09;5055160;28;1018;-40
2021/06/22 11:36:13;;;;;;;;;;;;;;;26.84;41.12;100379.50;5055607;28;822;-40
2021/06/22 11:38:38;;;;;;;;;;;;;;;26.92;41.11;100377.72;5055852;28;1246;-38
2021/06/22 11:41:10;;;;;;;;;;;;;;;26.88;41.00;100375.41;5055771;28;895;-40
2021/06/22 11:43:35;;;;;;;;;;;;;;;26.89;41.23;100379.75;5055626;28;779;-38
2021/06/22 11:46:19;;;;;;;;;;;;;;;26.96;41.07;100369.03;5059630;28;773;-40
2021/06/22 11:48:57;;;;;;;;;;;;;;;26.92;41.29;100373.16;5059677;28;883;-40
2021/06/22 11:51:41;;;;;;;;;;;;;;;26.94;41.09;100362.19;5059099;28;1906;-37
2021/06/22 11:54:06;;;;;;;;;;;;;;;26.94;40.76;100354.94;5059395;28;872;-40
2021/06/22 11:56:31;;;;;;;;;;;;;;;26.95;41.25;100370.06;5058163;28;871;-40
2021/06/22 11:58:59;;;;;;;;;;;;;;;26.99;41.06;100362.44;5058136;28;797;-40
2021/06/22 12:01:25;;;;;;;;;;;;;;;26.99;41.10;100357.84;5058847;28;916;-40
2021/06/22 12:03:52;;;;;;;;;;;;;;;27.07;41.00;100361.50;5058693;28;1479;-40
2021/06/22 12:06:20;;;;;;;;;;;;;;;26.88;40.10;100369.16;5059389;28;791;-38
2021/06/22 12:08:45;;;;;;;;;;;;;;;26.60;38.59;100372.56;5058100;28;835;-39
2021/06/22 12:11:13;;;;;;;;;;;;;;;26.47;39.08;100375.94;5058767;28;1905;-39
2021/06/22 12:13:41;;;;;;;;;;;;;;;26.44;38.77;100387.97;5058328;28;1120;-37
2021/06/22 12:16:32;;;;;;;;;;;;;;;26.47;38.27;100390.28;5059152;28;835;-39
2021/06/22 12:18:58;;;;;;;;;;;;;;;26.37;38.92;100389.72;5033614;28;1594;-38
2021/06/22 12:21:24;;;;;;;;;;;;;;;26.37;38.49;100395.13;5038948;28;786;-38
2021/06/22 12:23:49;;;;;;;;;;;;;;;26.34;38.52;100396.31;5037540;28;876;-37
2021/06/22 12:26:16;;;;;;;;;;;;;;;26.43;38.55;100398.91;5039056;28;743;-39
2021/06/22 12:28:42;;;;;;;;;;;;;;;26.32;38.57;100394.81;5038810;28;879;-38
2021/06/22 12:31:07;;;;;;;;;;;;;;;26.22;38.70;100397.78;5038656;28;1969;-38
2021/06/22 12:33:37;;;;;;;;;;;;;;;26.22;38.64;100395.94;5057268;28;1426;-40
2021/06/22 12:36:03;;;;;;;;;;;;;;;26.21;38.39;100396.94;5058526;28;768;-40
2021/06/22 12:38:29;;;;;;;;;;;;;;;26.10;38.18;100397.41;5058830;28;804;-39
2021/06/22 12:40:56;;;;;;;;;;;;;;;26.11;38.35;100394.50;5058602;28;772;-39
2021/06/22 12:43:37;;;;;;;;;;;;;;;26.00;38.40;100398.50;5058248;28;772;-38
2021/06/22 12:46:02;;;;;;;;;;;;;;;26.14;37.69;100396.03;5058178;28;875;-37
2021/06/22 12:48:28;;;;;;;;;;;;;;;26.18;37.54;100394.63;5057866;28;943;-40
2021/06/22 12:50:53;;;;;;;;;;;;;;;26.20;37.50;100392.56;5058225;28;1901;-42
2021/06/22 12:53:18;;;;;;;;;;;;;;;26.09;37.71;100395.72;5056751;28;983;-40